sensor_id;sensor_type;location;lat;lon;timestamp;P1;durP1;ratioP1;P2;durP2;ratioP2
10701;SDS011;5402;50.004;8.246;2022-09-13T00:02:14;6.07;;;5.27;;
10701;SDS011;5402;50.004;8.246;2022-09-13T00:04:40;6.63;;;5.53;;
10701;SDS011;5402;50.004;8.246;2022-09-13T00:07:07;6.80;;;5.07;;
10701;SDS011;5402;50.004;8.246;2022-09-13T00:09:34;7.40;;;6.20;;
10701;SDS011;5402;50.004;8.246;2022-09-13T00:12:01;6.63;;;5.00;;
10701;SDS011;5402;50.004;8.246;2022-09-13T00:14:29;6.17;;;5.47;;
10701;SDS011;5402;50.004;8.246;2022-09-13T00:16:56;6.43;;;4.80;;
10701;SDS011;5402;50.004;8.246;2022-09-13T00:19:23;6.57;;;5.00;;
10701;SDS011;5402;50.004;8.246;2022-09-13T00:21:50;6.60;;;5.43;;
10701;SDS011;5402;50.004;8.246;2022-09-13T00:24:17;6.07;;;5.20;;
10701;SDS011;5402;50.004;8.246;2022-09-13T00:26:44;8.33;;;5.70;;
10701;SDS011;5402;50.004;8.246;2022-09-13T00:29:10;7.13;;;5.53;;
10701;SDS011;5402;50.004;8.246;2022-09-13T00:31:38;6.07;;;5.47;;
10701;SDS011;5402;50.004;8.246;2022-09-13T00:34:05;5.60;;;4.83;;
10701;SDS011;5402;50.004;8.246;2022-09-13T00:36:32;6.40;;;5.37;;
10701;SDS011;5402;50.004;8.246;2022-09-13T00:38:59;6.43;;;5.07;;
10701;SDS011;5402;50.004;8.246;2022-09-13T00:41:26;5.87;;;5.00;;
10701;SDS011;5402;50.004;8.246;2022-09-13T00:43:54;6.70;;;5.20;;
10701;SDS011;5402;50.004;8.246;2022-09-13T00:46:24;8.67;;;5.00;;
10701;SDS011;5402;50.004;8.246;2022-09-13T00:49:03;6.93;;;5.70;;
10701;SDS011;5402;50.004;8.246;2022-09-13T00:51:39;7.37;;;6.03;;
10701;SDS011;5402;50.004;8.246;2022-09-13T00:54:08;7.87;;;5.00;;
10701;SDS011;5402;50.004;8.246;2022-09-13T00:56:37;8.23;;;6.17;;
10701;SDS011;5402;50.004;8.246;2022-09-13T00:59:08;7.77;;;6.07;;
10701;SDS011;5402;50.004;8.246;2022-09-13T01:01:39;6.87;;;5.80;;
10701;SDS011;5402;50.004;8.246;2022-09-13T01:04:11;7.03;;;5.80;;
10701;SDS011;5402;50.004;8.246;2022-09-13T01:06:40;8.83;;;5.47;;
10701;SDS011;5402;50.004;8.246;2022-09-13T01:09:09;10.33;;;6.23;;
10701;SDS011;5402;50.004;8.246;2022-09-13T01:11:39;7.47;;;5.80;;
10701;SDS011;5402;50.004;8.246;2022-09-13T01:14:11;6.33;;;5.23;;
10701;SDS011;5402;50.004;8.246;2022-09-13T01:16:38;7.33;;;5.40;;
10701;SDS011;5402;50.004;8.246;2022-09-13T01:19:05;5.77;;;4.97;;
10701;SDS011;5402;50.004;8.246;2022-09-13T01:21:48;8.47;;;6.23;;
10701;SDS011;5402;50.004;8.246;2022-09-13T01:24:46;6.47;;;5.23;;
10701;SDS011;5402;50.004;8.246;2022-09-13T01:27:37;6.17;;;5.27;;
10701;SDS011;5402;50.004;8.246;2022-09-13T01:30:20;5.70;;;4.93;;
10701;SDS011;5402;50.004;8.246;2022-09-13T01:33:07;7.10;;;5.00;;
10701;SDS011;5402;50.004;8.246;2022-09-13T01:38:44;6.87;;;5.57;;
10701;SDS011;5402;50.004;8.246;2022-09-13T01:41:26;8.50;;;5.90;;
10701;SDS011;5402;50.004;8.246;2022-09-13T01:44:09;7.97;;;6.10;;
10701;SDS011;5402;50.004;8.246;2022-09-13T01:46:45;10.23;;;6.33;;
10701;SDS011;5402;50.004;8.246;2022-09-13T01:49:17;6.93;;;5.90;;
10701;SDS011;5402;50.004;8.246;2022-09-13T01:51:48;8.63;;;6.20;;
10701;SDS011;5402;50.004;8.246;2022-09-13T01:54:20;7.77;;;6.23;;
10701;SDS011;5402;50.004;8.246;2022-09-13T01:56:57;8.23;;;5.90;;
10701;SDS011;5402;50.004;8.246;2022-09-13T01:59:32;10.10;;;5.77;;
10701;SDS011;5402;50.004;8.246;2022-09-13T02:02:10;6.93;;;5.50;;
10701;SDS011;5402;50.004;8.246;2022-09-13T02:04:42;8.90;;;5.47;;
10701;SDS011;5402;50.004;8.246;2022-09-13T02:07:14;7.07;;;6.23;;
10701;SDS011;5402;50.004;8.246;2022-09-13T02:09:46;7.80;;;5.30;;
10701;SDS011;5402;50.004;8.246;2022-09-13T02:12:16;10.17;;;6.00;;
10701;SDS011;5402;50.004;8.246;2022-09-13T02:14:48;9.30;;;5.80;;
10701;SDS011;5402;50.004;8.246;2022-09-13T02:17:21;9.50;;;5.63;;
10701;SDS011;5402;50.004;8.246;2022-09-13T02:19:51;7.37;;;5.73;;
10701;SDS011;5402;50.004;8.246;2022-09-13T02:22:21;9.00;;;5.77;;
10701;SDS011;5402;50.004;8.246;2022-09-13T02:24:54;9.63;;;6.63;;
10701;SDS011;5402;50.004;8.246;2022-09-13T02:27:25;8.70;;;6.30;;
10701;SDS011;5402;50.004;8.246;2022-09-13T02:29:55;9.17;;;6.17;;
10701;SDS011;5402;50.004;8.246;2022-09-13T02:32:28;11.13;;;6.73;;
10701;SDS011;5402;50.004;8.246;2022-09-13T02:35:00;9.33;;;6.10;;
10701;SDS011;5402;50.004;8.246;2022-09-13T02:37:30;8.73;;;6.07;;
10701;SDS011;5402;50.004;8.246;2022-09-13T02:40:01;7.80;;;5.67;;
10701;SDS011;5402;50.004;8.246;2022-09-13T02:42:33;7.07;;;6.00;;
10701;SDS011;5402;50.004;8.246;2022-09-13T02:45:06;8.43;;;5.90;;
10701;SDS011;5402;50.004;8.246;2022-09-13T02:47:38;8.70;;;5.77;;
10701;SDS011;5402;50.004;8.246;2022-09-13T02:50:14;6.90;;;6.03;;
10701;SDS011;5402;50.004;8.246;2022-09-13T02:52:55;8.20;;;4.83;;
10701;SDS011;5402;50.004;8.246;2022-09-13T02:55:36;6.30;;;5.40;;
10701;SDS011;5402;50.004;8.246;2022-09-13T02:58:08;7.77;;;5.23;;
10701;SDS011;5402;50.004;8.246;2022-09-13T03:00:37;8.37;;;5.37;;
10701;SDS011;5402;50.004;8.246;2022-09-13T03:03:06;7.17;;;5.77;;
10701;SDS011;5402;50.004;8.246;2022-09-13T03:05:36;5.83;;;5.00;;
10701;SDS011;5402;50.004;8.246;2022-09-13T03:08:02;6.43;;;5.37;;
10701;SDS011;5402;50.004;8.246;2022-09-13T03:10:34;8.73;;;6.10;;
10701;SDS011;5402;50.004;8.246;2022-09-13T03:13:13;5.97;;;5.20;;
10701;SDS011;5402;50.004;8.246;2022-09-13T03:15:58;6.30;;;5.30;;
10701;SDS011;5402;50.004;8.246;2022-09-13T03:18:37;8.47;;;5.90;;
10701;SDS011;5402;50.004;8.246;2022-09-13T03:21:20;8.80;;;5.03;;
10701;SDS011;5402;50.004;8.246;2022-09-13T03:24:03;7.00;;;5.17;;
10701;SDS011;5402;50.004;8.246;2022-09-13T03:26:43;6.43;;;5.00;;
10701;SDS011;5402;50.004;8.246;2022-09-13T03:29:21;7.33;;;5.50;;
10701;SDS011;5402;50.004;8.246;2022-09-13T03:31:55;5.97;;;5.27;;
10701;SDS011;5402;50.004;8.246;2022-09-13T03:34:35;6.33;;;4.73;;
10701;SDS011;5402;50.004;8.246;2022-09-13T03:37:13;8.97;;;5.77;;
10701;SDS011;5402;50.004;8.246;2022-09-13T03:39:51;6.20;;;5.30;;
10701;SDS011;5402;50.004;8.246;2022-09-13T03:42:27;6.03;;;5.20;;
10701;SDS011;5402;50.004;8.246;2022-09-13T03:45:02;5.97;;;4.73;;
10701;SDS011;5402;50.004;8.246;2022-09-13T03:47:32;5.67;;;4.33;;
10701;SDS011;5402;50.004;8.246;2022-09-13T03:50:07;6.33;;;5.17;;
10701;SDS011;5402;50.004;8.246;2022-09-13T03:52:35;5.67;;;4.67;;
10701;SDS011;5402;50.004;8.246;2022-09-13T03:55:02;5.73;;;4.50;;
10701;SDS011;5402;50.004;8.246;2022-09-13T03:57:29;6.47;;;4.80;;
10701;SDS011;5402;50.004;8.246;2022-09-13T03:59:56;6.37;;;4.80;;
10701;SDS011;5402;50.004;8.246;2022-09-13T04:02:24;9.70;;;4.70;;
10701;SDS011;5402;50.004;8.246;2022-09-13T04:04:52;7.17;;;5.07;;
10701;SDS011;5402;50.004;8.246;2022-09-13T04:07:22;7.23;;;5.87;;
10701;SDS011;5402;50.004;8.246;2022-09-13T04:09:50;7.57;;;5.70;;
10701;SDS011;5402;50.004;8.246;2022-09-13T04:12:17;6.10;;;5.50;;
10701;SDS011;5402;50.004;8.246;2022-09-13T04:14:44;6.63;;;5.43;;
10701;SDS011;5402;50.004;8.246;2022-09-13T04:17:11;7.60;;;5.43;;
10701;SDS011;5402;50.004;8.246;2022-09-13T04:19:39;8.93;;;6.53;;
10701;SDS011;5402;50.004;8.246;2022-09-13T04:22:06;5.50;;;4.87;;
10701;SDS011;5402;50.004;8.246;2022-09-13T04:24:34;9.27;;;5.70;;
10701;SDS011;5402;50.004;8.246;2022-09-13T04:27:01;6.67;;;5.17;;
10701;SDS011;5402;50.004;8.246;2022-09-13T04:29:28;7.40;;;5.97;;
10701;SDS011;5402;50.004;8.246;2022-09-13T04:31:57;6.37;;;5.27;;
10701;SDS011;5402;50.004;8.246;2022-09-13T04:34:27;8.77;;;5.87;;
10701;SDS011;5402;50.004;8.246;2022-09-13T04:36:54;10.83;;;5.90;;
10701;SDS011;5402;50.004;8.246;2022-09-13T04:39:21;5.47;;;4.90;;
10701;SDS011;5402;50.004;8.246;2022-09-13T04:41:50;5.43;;;4.90;;
10701;SDS011;5402;50.004;8.246;2022-09-13T04:44:19;7.63;;;5.43;;
10701;SDS011;5402;50.004;8.246;2022-09-13T04:46:46;5.90;;;5.23;;
10701;SDS011;5402;50.004;8.246;2022-09-13T04:49:15;9.73;;;5.40;;
10701;SDS011;5402;50.004;8.246;2022-09-13T04:51:44;5.30;;;4.70;;
10701;SDS011;5402;50.004;8.246;2022-09-13T04:54:11;5.00;;;4.37;;
10701;SDS011;5402;50.004;8.246;2022-09-13T04:56:38;6.27;;;4.60;;
10701;SDS011;5402;50.004;8.246;2022-09-13T04:59:06;8.30;;;5.43;;
10701;SDS011;5402;50.004;8.246;2022-09-13T05:01:34;6.87;;;5.20;;
10701;SDS011;5402;50.004;8.246;2022-09-13T05:04:01;6.70;;;5.00;;
10701;SDS011;5402;50.004;8.246;2022-09-13T05:06:28;9.30;;;5.47;;
10701;SDS011;5402;50.004;8.246;2022-09-13T05:08:55;7.80;;;5.63;;
10701;SDS011;5402;50.004;8.246;2022-09-13T05:11:22;9.40;;;5.67;;
10701;SDS011;5402;50.004;8.246;2022-09-13T05:13:50;6.57;;;5.40;;
10701;SDS011;5402;50.004;8.246;2022-09-13T05:16:20;8.30;;;5.23;;
10701;SDS011;5402;50.004;8.246;2022-09-13T05:18:48;7.17;;;5.00;;
10701;SDS011;5402;50.004;8.246;2022-09-13T05:21:16;8.20;;;5.13;;
10701;SDS011;5402;50.004;8.246;2022-09-13T05:23:43;5.60;;;4.87;;
10701;SDS011;5402;50.004;8.246;2022-09-13T05:26:10;7.73;;;5.60;;
10701;SDS011;5402;50.004;8.246;2022-09-13T05:28:37;5.77;;;5.17;;
10701;SDS011;5402;50.004;8.246;2022-09-13T05:31:05;6.63;;;5.07;;
10701;SDS011;5402;50.004;8.246;2022-09-13T05:33:35;7.13;;;5.73;;
10701;SDS011;5402;50.004;8.246;2022-09-13T05:36:03;8.43;;;5.77;;
10701;SDS011;5402;50.004;8.246;2022-09-13T05:38:32;6.40;;;5.30;;
10701;SDS011;5402;50.004;8.246;2022-09-13T05:40:59;6.47;;;4.97;;
10701;SDS011;5402;50.004;8.246;2022-09-13T05:43:30;9.03;;;5.10;;
10701;SDS011;5402;50.004;8.246;2022-09-13T05:46:02;7.47;;;5.20;;
10701;SDS011;5402;50.004;8.246;2022-09-13T05:48:30;6.10;;;4.40;;
10701;SDS011;5402;50.004;8.246;2022-09-13T05:51:04;5.60;;;4.60;;
10701;SDS011;5402;50.004;8.246;2022-09-13T05:53:32;7.83;;;5.43;;
10701;SDS011;5402;50.004;8.246;2022-09-13T05:56:00;5.93;;;4.60;;
10701;SDS011;5402;50.004;8.246;2022-09-13T05:58:29;8.40;;;4.83;;
10701;SDS011;5402;50.004;8.246;2022-09-13T06:00:56;6.30;;;4.87;;
10701;SDS011;5402;50.004;8.246;2022-09-13T06:03:23;5.77;;;4.67;;
10701;SDS011;5402;50.004;8.246;2022-09-13T06:05:53;6.57;;;4.60;;
10701;SDS011;5402;50.004;8.246;2022-09-13T06:08:23;7.20;;;4.83;;
10701;SDS011;5402;50.004;8.246;2022-09-13T06:10:54;8.63;;;5.47;;
10701;SDS011;5402;50.004;8.246;2022-09-13T06:13:22;8.40;;;5.10;;
10701;SDS011;5402;50.004;8.246;2022-09-13T06:15:50;6.40;;;5.30;;
10701;SDS011;5402;50.004;8.246;2022-09-13T06:18:17;5.53;;;5.03;;
10701;SDS011;5402;50.004;8.246;2022-09-13T06:20:44;6.70;;;4.80;;
10701;SDS011;5402;50.004;8.246;2022-09-13T06:23:11;9.13;;;5.73;;
10701;SDS011;5402;50.004;8.246;2022-09-13T06:25:40;8.17;;;5.70;;
10701;SDS011;5402;50.004;8.246;2022-09-13T06:28:07;6.40;;;5.67;;
10701;SDS011;5402;50.004;8.246;2022-09-13T06:30:35;11.53;;;5.93;;
10701;SDS011;5402;50.004;8.246;2022-09-13T06:33:02;7.40;;;5.70;;
10701;SDS011;5402;50.004;8.246;2022-09-13T06:35:28;6.17;;;5.13;;
10701;SDS011;5402;50.004;8.246;2022-09-13T06:37:56;6.73;;;5.00;;
10701;SDS011;5402;50.004;8.246;2022-09-13T06:40:23;5.20;;;4.70;;
10701;SDS011;5402;50.004;8.246;2022-09-13T06:42:52;6.50;;;4.90;;
10701;SDS011;5402;50.004;8.246;2022-09-13T06:45:18;5.17;;;4.60;;
10701;SDS011;5402;50.004;8.246;2022-09-13T06:47:45;8.03;;;4.97;;
10701;SDS011;5402;50.004;8.246;2022-09-13T06:50:12;6.43;;;5.07;;
10701;SDS011;5402;50.004;8.246;2022-09-13T06:52:39;7.33;;;5.10;;
10701;SDS011;5402;50.004;8.246;2022-09-13T06:55:06;6.87;;;5.00;;
10701;SDS011;5402;50.004;8.246;2022-09-13T06:57:33;5.77;;;4.57;;
10701;SDS011;5402;50.004;8.246;2022-09-13T07:00:01;8.90;;;4.60;;
10701;SDS011;5402;50.004;8.246;2022-09-13T07:02:29;7.47;;;4.77;;
10701;SDS011;5402;50.004;8.246;2022-09-13T07:04:56;8.67;;;5.20;;
10701;SDS011;5402;50.004;8.246;2022-09-13T07:07:23;5.67;;;5.07;;
10701;SDS011;5402;50.004;8.246;2022-09-13T07:09:49;5.87;;;4.77;;
10701;SDS011;5402;50.004;8.246;2022-09-13T07:12:16;6.57;;;5.57;;
10701;SDS011;5402;50.004;8.246;2022-09-13T07:14:43;9.07;;;4.83;;
10701;SDS011;5402;50.004;8.246;2022-09-13T07:17:11;6.93;;;5.13;;
10701;SDS011;5402;50.004;8.246;2022-09-13T07:19:38;5.90;;;5.13;;
10701;SDS011;5402;50.004;8.246;2022-09-13T07:22:05;5.53;;;4.50;;
10701;SDS011;5402;50.004;8.246;2022-09-13T07:24:32;6.60;;;4.63;;
10701;SDS011;5402;50.004;8.246;2022-09-13T07:26:59;8.17;;;5.20;;
10701;SDS011;5402;50.004;8.246;2022-09-13T07:29:26;6.83;;;4.80;;
10701;SDS011;5402;50.004;8.246;2022-09-13T07:31:53;6.07;;;4.57;;
10701;SDS011;5402;50.004;8.246;2022-09-13T07:34:22;6.27;;;4.80;;
10701;SDS011;5402;50.004;8.246;2022-09-13T07:36:50;7.43;;;5.00;;
10701;SDS011;5402;50.004;8.246;2022-09-13T07:39:19;6.43;;;4.90;;
10701;SDS011;5402;50.004;8.246;2022-09-13T07:41:45;6.80;;;5.90;;
10701;SDS011;5402;50.004;8.246;2022-09-13T07:44:13;7.93;;;5.20;;
10701;SDS011;5402;50.004;8.246;2022-09-13T07:46:41;8.30;;;7.03;;
10701;SDS011;5402;50.004;8.246;2022-09-13T07:49:09;9.10;;;6.57;;
10701;SDS011;5402;50.004;8.246;2022-09-13T07:51:39;7.87;;;6.60;;
10701;SDS011;5402;50.004;8.246;2022-09-13T07:54:09;10.67;;;6.10;;
10701;SDS011;5402;50.004;8.246;2022-09-13T07:56:37;8.60;;;5.83;;
10701;SDS011;5402;50.004;8.246;2022-09-13T07:59:10;9.70;;;6.87;;
10701;SDS011;5402;50.004;8.246;2022-09-13T08:01:40;9.57;;;6.47;;
10701;SDS011;5402;50.004;8.246;2022-09-13T08:04:08;10.17;;;6.47;;
10701;SDS011;5402;50.004;8.246;2022-09-13T08:06:37;7.67;;;6.30;;
10701;SDS011;5402;50.004;8.246;2022-09-13T08:09:07;10.07;;;6.67;;
10701;SDS011;5402;50.004;8.246;2022-09-13T08:11:35;9.10;;;6.77;;
10701;SDS011;5402;50.004;8.246;2022-09-13T08:14:03;13.63;;;7.97;;
10701;SDS011;5402;50.004;8.246;2022-09-13T08:16:30;11.43;;;7.40;;
10701;SDS011;5402;50.004;8.246;2022-09-13T08:18:58;11.73;;;7.90;;
10701;SDS011;5402;50.004;8.246;2022-09-13T08:21:30;9.07;;;6.67;;
10701;SDS011;5402;50.004;8.246;2022-09-13T08:23:59;10.67;;;7.23;;
10701;SDS011;5402;50.004;8.246;2022-09-13T08:26:29;9.60;;;6.37;;
10701;SDS011;5402;50.004;8.246;2022-09-13T08:29:01;8.53;;;6.63;;
10701;SDS011;5402;50.004;8.246;2022-09-13T08:31:29;9.13;;;6.43;;
10701;SDS011;5402;50.004;8.246;2022-09-13T08:33:56;8.80;;;6.20;;
10701;SDS011;5402;50.004;8.246;2022-09-13T08:36:28;11.83;;;6.67;;
10701;SDS011;5402;50.004;8.246;2022-09-13T08:38:56;9.93;;;7.40;;
10701;SDS011;5402;50.004;8.246;2022-09-13T08:41:44;8.40;;;6.83;;
10701;SDS011;5402;50.004;8.246;2022-09-13T08:44:25;8.73;;;7.20;;
10701;SDS011;5402;50.004;8.246;2022-09-13T08:46:56;9.43;;;7.50;;
10701;SDS011;5402;50.004;8.246;2022-09-13T08:49:29;8.70;;;7.10;;
10701;SDS011;5402;50.004;8.246;2022-09-13T08:52:02;11.10;;;7.63;;
10701;SDS011;5402;50.004;8.246;2022-09-13T08:54:38;10.83;;;7.80;;
10701;SDS011;5402;50.004;8.246;2022-09-13T08:57:07;11.73;;;7.33;;
10701;SDS011;5402;50.004;8.246;2022-09-13T08:59:46;11.23;;;7.57;;
10701;SDS011;5402;50.004;8.246;2022-09-13T09:02:22;10.33;;;7.43;;
10701;SDS011;5402;50.004;8.246;2022-09-13T09:04:57;11.90;;;8.37;;
10701;SDS011;5402;50.004;8.246;2022-09-13T09:07:31;12.30;;;8.30;;
10701;SDS011;5402;50.004;8.246;2022-09-13T09:10:05;14.97;;;8.63;;
10701;SDS011;5402;50.004;8.246;2022-09-13T09:12:40;14.30;;;9.10;;
10701;SDS011;5402;50.004;8.246;2022-09-13T09:15:13;12.47;;;8.57;;
10701;SDS011;5402;50.004;8.246;2022-09-13T09:17:44;10.70;;;8.43;;
10701;SDS011;5402;50.004;8.246;2022-09-13T09:20:20;11.43;;;8.93;;
10701;SDS011;5402;50.004;8.246;2022-09-13T09:22:51;10.70;;;8.70;;
10701;SDS011;5402;50.004;8.246;2022-09-13T09:25:21;12.93;;;8.27;;
10701;SDS011;5402;50.004;8.246;2022-09-13T09:27:50;12.03;;;8.63;;
10701;SDS011;5402;50.004;8.246;2022-09-13T09:30:17;12.80;;;8.53;;
10701;SDS011;5402;50.004;8.246;2022-09-13T09:35:43;10.70;;;8.13;;
10701;SDS011;5402;50.004;8.246;2022-09-13T09:41:05;11.33;;;8.27;;
10701;SDS011;5402;50.004;8.246;2022-09-13T09:43:40;15.10;;;9.50;;
10701;SDS011;5402;50.004;8.246;2022-09-13T09:46:11;11.83;;;8.50;;
10701;SDS011;5402;50.004;8.246;2022-09-13T09:48:43;12.43;;;7.90;;
10701;SDS011;5402;50.004;8.246;2022-09-13T09:51:13;25.77;;;19.03;;
10701;SDS011;5402;50.004;8.246;2022-09-13T09:53:43;13.27;;;9.67;;
10701;SDS011;5402;50.004;8.246;2022-09-13T09:56:17;13.00;;;8.50;;
10701;SDS011;5402;50.004;8.246;2022-09-13T09:58:48;8.83;;;7.53;;
10701;SDS011;5402;50.004;8.246;2022-09-13T10:01:18;12.83;;;8.90;;
10701;SDS011;5402;50.004;8.246;2022-09-13T10:03:51;12.47;;;8.70;;
10701;SDS011;5402;50.004;8.246;2022-09-13T10:06:27;10.70;;;7.87;;
10701;SDS011;5402;50.004;8.246;2022-09-13T10:08:56;18.10;;;9.50;;
10701;SDS011;5402;50.004;8.246;2022-09-13T10:11:38;11.30;;;8.13;;
10701;SDS011;5402;50.004;8.246;2022-09-13T10:17:08;11.50;;;9.20;;
10701;SDS011;5402;50.004;8.246;2022-09-13T10:19:49;24.13;;;15.70;;
10701;SDS011;5402;50.004;8.246;2022-09-13T10:22:18;13.83;;;9.90;;
10701;SDS011;5402;50.004;8.246;2022-09-13T10:24:46;12.43;;;9.13;;
10701;SDS011;5402;50.004;8.246;2022-09-13T10:27:20;12.30;;;8.47;;
10701;SDS011;5402;50.004;8.246;2022-09-13T10:29:51;11.90;;;8.27;;
10701;SDS011;5402;50.004;8.246;2022-09-13T10:32:23;10.93;;;8.83;;
10701;SDS011;5402;50.004;8.246;2022-09-13T10:34:51;17.50;;;10.80;;
10701;SDS011;5402;50.004;8.246;2022-09-13T10:37:23;11.57;;;8.40;;
10701;SDS011;5402;50.004;8.246;2022-09-13T10:39:56;13.00;;;8.60;;
10701;SDS011;5402;50.004;8.246;2022-09-13T10:42:29;11.80;;;8.90;;
10701;SDS011;5402;50.004;8.246;2022-09-13T10:44:56;10.23;;;7.40;;
10701;SDS011;5402;50.004;8.246;2022-09-13T10:47:26;9.43;;;7.90;;
10701;SDS011;5402;50.004;8.246;2022-09-13T10:49:57;8.10;;;7.30;;
10701;SDS011;5402;50.004;8.246;2022-09-13T10:52:25;11.20;;;7.93;;
10701;SDS011;5402;50.004;8.246;2022-09-13T10:58:15;72.17;;;9.83;;
10701;SDS011;5402;50.004;8.246;2022-09-13T11:00:45;9.13;;;6.40;;
10701;SDS011;5402;50.004;8.246;2022-09-13T11:03:33;8.33;;;5.97;;
10701;SDS011;5402;50.004;8.246;2022-09-13T11:06:10;6.93;;;5.73;;
10701;SDS011;5402;50.004;8.246;2022-09-13T11:08:47;5.93;;;5.33;;
10701;SDS011;5402;50.004;8.246;2022-09-13T11:11:22;8.67;;;5.97;;
10701;SDS011;5402;50.004;8.246;2022-09-13T11:16:52;7.60;;;5.60;;
10701;SDS011;5402;50.004;8.246;2022-09-13T11:22:21;7.93;;;6.30;;
10701;SDS011;5402;50.004;8.246;2022-09-13T11:25:00;7.50;;;5.90;;
10701;SDS011;5402;50.004;8.246;2022-09-13T11:27:39;6.17;;;5.57;;
10701;SDS011;5402;50.004;8.246;2022-09-13T11:30:16;5.90;;;5.20;;
10701;SDS011;5402;50.004;8.246;2022-09-13T11:33:01;6.87;;;5.10;;
10701;SDS011;5402;50.004;8.246;2022-09-13T11:35:46;5.90;;;4.93;;
10701;SDS011;5402;50.004;8.246;2022-09-13T11:38:34;7.57;;;5.83;;
10701;SDS011;5402;50.004;8.246;2022-09-13T11:41:09;7.70;;;5.00;;
10701;SDS011;5402;50.004;8.246;2022-09-13T11:43:51;6.33;;;5.60;;
10701;SDS011;5402;50.004;8.246;2022-09-13T11:46:28;7.33;;;6.40;;
10701;SDS011;5402;50.004;8.246;2022-09-13T11:49:08;7.77;;;5.80;;
10701;SDS011;5402;50.004;8.246;2022-09-13T11:51:54;7.50;;;5.97;;
10701;SDS011;5402;50.004;8.246;2022-09-13T11:54:32;8.23;;;6.10;;
10701;SDS011;5402;50.004;8.246;2022-09-13T11:57:10;8.47;;;5.90;;
10701;SDS011;5402;50.004;8.246;2022-09-13T11:59:42;7.93;;;5.47;;
10701;SDS011;5402;50.004;8.246;2022-09-13T12:02:19;7.63;;;5.20;;
10701;SDS011;5402;50.004;8.246;2022-09-13T12:04:51;5.13;;;4.53;;
10701;SDS011;5402;50.004;8.246;2022-09-13T12:07:28;6.07;;;5.20;;
10701;SDS011;5402;50.004;8.246;2022-09-13T12:10:01;6.17;;;5.10;;
10701;SDS011;5402;50.004;8.246;2022-09-13T12:12:32;6.83;;;5.73;;
10701;SDS011;5402;50.004;8.246;2022-09-13T12:15:02;6.73;;;4.93;;
10701;SDS011;5402;50.004;8.246;2022-09-13T12:17:37;5.77;;;4.87;;
10701;SDS011;5402;50.004;8.246;2022-09-13T12:20:11;16.43;;;7.80;;
10701;SDS011;5402;50.004;8.246;2022-09-13T12:22:43;7.10;;;5.80;;
10701;SDS011;5402;50.004;8.246;2022-09-13T12:25:17;8.10;;;5.50;;
10701;SDS011;5402;50.004;8.246;2022-09-13T12:27:50;7.83;;;6.00;;
10701;SDS011;5402;50.004;8.246;2022-09-13T12:30:22;5.70;;;5.10;;
10701;SDS011;5402;50.004;8.246;2022-09-13T12:32:54;8.13;;;5.73;;
10701;SDS011;5402;50.004;8.246;2022-09-13T12:35:24;7.97;;;5.63;;
10701;SDS011;5402;50.004;8.246;2022-09-13T12:38:03;6.50;;;5.80;;
10701;SDS011;5402;50.004;8.246;2022-09-13T12:43:54;7.97;;;5.30;;
10701;SDS011;5402;50.004;8.246;2022-09-13T12:46:46;6.60;;;4.87;;
10701;SDS011;5402;50.004;8.246;2022-09-13T12:49:27;5.37;;;4.70;;
10701;SDS011;5402;50.004;8.246;2022-09-13T12:52:20;7.27;;;4.93;;
10701;SDS011;5402;50.004;8.246;2022-09-13T12:55:05;7.80;;;5.37;;
10701;SDS011;5402;50.004;8.246;2022-09-13T12:57:46;5.83;;;5.23;;
10701;SDS011;5402;50.004;8.246;2022-09-13T13:00:23;8.07;;;5.23;;
10701;SDS011;5402;50.004;8.246;2022-09-13T13:03:03;6.90;;;5.40;;
10701;SDS011;5402;50.004;8.246;2022-09-13T13:05:40;6.53;;;5.00;;
10701;SDS011;5402;50.004;8.246;2022-09-13T13:08:19;10.67;;;5.37;;
10701;SDS011;5402;50.004;8.246;2022-09-13T13:10:59;5.43;;;4.53;;
10701;SDS011;5402;50.004;8.246;2022-09-13T13:13:31;7.33;;;5.00;;
10701;SDS011;5402;50.004;8.246;2022-09-13T13:16:02;5.73;;;5.13;;
10701;SDS011;5402;50.004;8.246;2022-09-13T13:18:41;9.13;;;5.50;;
10701;SDS011;5402;50.004;8.246;2022-09-13T13:33:16;7.27;;;5.40;;
10701;SDS011;5402;50.004;8.246;2022-09-13T13:35:45;6.63;;;5.43;;
10701;SDS011;5402;50.004;8.246;2022-09-13T13:38:15;5.87;;;5.10;;
10701;SDS011;5402;50.004;8.246;2022-09-13T13:41:03;7.57;;;5.33;;
10701;SDS011;5402;50.004;8.246;2022-09-13T13:43:33;6.97;;;6.00;;
10701;SDS011;5402;50.004;8.246;2022-09-13T13:46:23;6.23;;;5.57;;
10701;SDS011;5402;50.004;8.246;2022-09-13T13:48:55;6.05;;;5.45;;
10701;SDS011;5402;50.004;8.246;2022-09-13T13:51:44;8.00;;;5.90;;
10701;SDS011;5402;50.004;8.246;2022-09-13T13:57:00;7.87;;;5.77;;
10701;SDS011;5402;50.004;8.246;2022-09-13T13:59:29;6.07;;;5.17;;
10701;SDS011;5402;50.004;8.246;2022-09-13T14:01:58;5.17;;;4.67;;
10701;SDS011;5402;50.004;8.246;2022-09-13T14:07:32;7.13;;;6.05;;
10701;SDS011;5402;50.004;8.246;2022-09-13T14:10:36;6.33;;;5.73;;
10701;SDS011;5402;50.004;8.246;2022-09-13T14:13:18;6.63;;;5.25;;
10701;SDS011;5402;50.004;8.246;2022-09-13T14:15:55;7.27;;;5.37;;
10701;SDS011;5402;50.004;8.246;2022-09-13T14:21:25;6.80;;;4.97;;
10701;SDS011;5402;50.004;8.246;2022-09-13T14:24:07;7.10;;;4.65;;
10701;SDS011;5402;50.004;8.246;2022-09-13T14:26:40;6.22;;;4.55;;
10701;SDS011;5402;50.004;8.246;2022-09-13T14:29:07;6.27;;;5.20;;
10701;SDS011;5402;50.004;8.246;2022-09-13T14:31:35;8.03;;;5.00;;
10701;SDS011;5402;50.004;8.246;2022-09-13T14:34:02;6.30;;;4.90;;
10701;SDS011;5402;50.004;8.246;2022-09-13T14:36:29;7.07;;;5.22;;
10701;SDS011;5402;50.004;8.246;2022-09-13T14:38:57;6.22;;;5.47;;
10701;SDS011;5402;50.004;8.246;2022-09-13T14:41:30;5.97;;;5.37;;
10701;SDS011;5402;50.004;8.246;2022-09-13T14:44:14;8.15;;;5.05;;
10701;SDS011;5402;50.004;8.246;2022-09-13T14:46:42;7.70;;;5.95;;
10701;SDS011;5402;50.004;8.246;2022-09-13T14:49:14;9.02;;;6.78;;
10701;SDS011;5402;50.004;8.246;2022-09-13T14:51:48;9.60;;;6.20;;
10701;SDS011;5402;50.004;8.246;2022-09-13T14:54:20;7.20;;;6.40;;
10701;SDS011;5402;50.004;8.246;2022-09-13T14:56:56;11.27;;;7.75;;
10701;SDS011;5402;50.004;8.246;2022-09-13T14:59:25;9.32;;;6.90;;
10701;SDS011;5402;50.004;8.246;2022-09-13T15:01:56;10.02;;;6.85;;
10701;SDS011;5402;50.004;8.246;2022-09-13T15:04:23;9.30;;;7.07;;
10701;SDS011;5402;50.004;8.246;2022-09-13T15:07:04;11.02;;;8.00;;
10701;SDS011;5402;50.004;8.246;2022-09-13T15:09:33;8.63;;;6.78;;
10701;SDS011;5402;50.004;8.246;2022-09-13T15:12:03;9.55;;;6.43;;
10701;SDS011;5402;50.004;8.246;2022-09-13T15:14:45;8.82;;;6.25;;
10701;SDS011;5402;50.004;8.246;2022-09-13T15:17:12;11.20;;;7.47;;
10701;SDS011;5402;50.004;8.246;2022-09-13T15:19:40;8.20;;;6.28;;
10701;SDS011;5402;50.004;8.246;2022-09-13T15:22:12;7.65;;;6.20;;
10701;SDS011;5402;50.004;8.246;2022-09-13T15:24:48;7.05;;;6.10;;
10701;SDS011;5402;50.004;8.246;2022-09-13T15:27:22;10.97;;;7.00;;
10701;SDS011;5402;50.004;8.246;2022-09-13T15:29:54;10.77;;;6.05;;
10701;SDS011;5402;50.004;8.246;2022-09-13T15:32:27;7.00;;;6.15;;
10701;SDS011;5402;50.004;8.246;2022-09-13T15:34:57;6.83;;;5.90;;
10701;SDS011;5402;50.004;8.246;2022-09-13T15:37:29;7.90;;;5.50;;
10701;SDS011;5402;50.004;8.246;2022-09-13T15:40:15;9.03;;;6.53;;
10701;SDS011;5402;50.004;8.246;2022-09-13T15:42:45;7.35;;;6.13;;
10701;SDS011;5402;50.004;8.246;2022-09-13T15:45:13;7.87;;;5.70;;
10701;SDS011;5402;50.004;8.246;2022-09-13T15:47:43;9.70;;;6.00;;
10701;SDS011;5402;50.004;8.246;2022-09-13T15:50:17;7.33;;;5.60;;
10701;SDS011;5402;50.004;8.246;2022-09-13T15:52:45;8.48;;;6.00;;
10701;SDS011;5402;50.004;8.246;2022-09-13T15:55:14;8.43;;;6.47;;
10701;SDS011;5402;50.004;8.246;2022-09-13T15:57:51;7.43;;;5.90;;
10701;SDS011;5402;50.004;8.246;2022-09-13T16:00:18;8.55;;;6.78;;
10701;SDS011;5402;50.004;8.246;2022-09-13T16:02:49;8.17;;;6.50;;
10701;SDS011;5402;50.004;8.246;2022-09-13T16:05:16;12.53;;;7.57;;
10701;SDS011;5402;50.004;8.246;2022-09-13T16:07:44;9.23;;;6.37;;
10701;SDS011;5402;50.004;8.246;2022-09-13T16:10:15;10.32;;;6.32;;
10701;SDS011;5402;50.004;8.246;2022-09-13T16:12:45;6.72;;;5.55;;